Aérodrome :
LOGIN :

S'inscrire | Disclaimer

   EN    FR    IT 

 










Légende :    VFR   VFR Marginal   IFR   IFR Intensif   IFR Très Intensif
Visi : 
Plafond : 
>= 8 km
>= 3000ft
5 à 8 km
1000 à 3000 ft
1500m à 5 km
500 à 1000 ft
800 à 1500m
200 à 500 ft
< 800m
< 200 ft
Symboles :   Orages  Brouillard  Fortes neiges  Fortes précipitations  Vent > 20 kt
SIGMETs :   Divers  Orages  Givrage  Turbulence  Onde Orograph.  Cendres Volcan.






- Altitude de l'aérodrome : 7 ft
- Code IATA : ESH


EGKA - Shoreham

DERNIER METAR :
  • 241750Z 21017G27KT 5000 -DZ BKN006 10/10 Q1006

METARs EXPIRÉS :
  • 241720Z 21019KT 4000 -DZ BKN006 10/10 Q1006 REDZ
  • 241650Z 20020G30KT 3500 DZ BKN006 10/10 Q1006
  • 241620Z 20021G34KT 2500 DZ BKN005 10/10 Q1006
  • 241550Z 20019G29KT 3000 BKN007 10/09 Q1007
  • 241520Z 20021G31KT 3500 -RA BKN007 10/09 Q1007

TAF TAF EGKA
Valide du 24 à 18h jusqu'au 24 à 20h UTC


241703Z 2418/2420 24020G30KT 6000 -RADZ BKN012
BECMG 2418/2420 26013KT 9999 SCT012
ATIS : +44 1273 467 372



MET'MAP, la Météo Aéronautique d'un coup d'oeil ! - Copyright ORBIFLY Décembre 2007 - Disclaimer

ORBIFLY MET'MAP TEAM :

Programmation & Développement : Alexandra Zaïnal
Sur une idée originale de : Baudouin d'Aumeries
Assistance à la programmation : Marc-Olivier Méhu
Soutien technique & logistique : Manuel Goepfert

Contact : metmap@orbifly.com




SOURCES & CREDITS :

   NOAA